Time;durP1;ratioP1;P1;durP2;ratioP2;P2;SDS_P1;SDS_P2;PMS_P1;PMS_P2;Temp;Humidity;BMP_temperature;BMP_pressure;BME280_temperature;BME280_humidity;BME280_pressure;Samples;Min_cycle;Max_cycle;Signal;HPM_P1;HPM_P2
2022/09/11 00:00:51;;;;;;;15.48;10.82;;;;;;;14.48;88.25;101625.97;5041300;28;20026;-77
2022/09/11 00:03:18;;;;;;;13.48;10.38;;;;;;;14.47;88.25;101634.72;5044511;28;20028;-77
2022/09/11 00:05:45;;;;;;;15.40;10.43;;;;;;;14.45;88.46;101636.53;5037806;28;20049;-77
2022/09/11 00:08:12;;;;;;;16.60;11.40;;;;;;;14.43;88.65;101633.97;5033734;28;20527;-77
2022/09/11 00:10:40;;;;;;;18.27;12.02;;;;;;;14.42;88.79;101635.72;5036588;28;20021;-77
2022/09/11 00:13:06;;;;;;;14.43;11.15;;;;;;;14.41;89.00;101626.13;5038499;28;20025;-78
2022/09/11 00:15:39;;;;;;;17.45;11.32;;;;;;;14.42;89.03;101627.84;5044898;28;20033;-77
2022/09/11 00:18:06;;;;;;;17.60;11.40;;;;;;;14.42;89.01;101627.84;5033265;28;20108;-77
2022/09/11 00:20:32;;;;;;;16.83;11.45;;;;;;;14.42;89.12;101622.63;5037350;28;20096;-77
2022/09/11 00:23:00;;;;;;;14.98;11.10;;;;;;;14.41;88.95;101615.66;5021753;28;20060;-77
2022/09/11 00:25:26;;;;;;;15.05;11.38;;;;;;;14.42;88.91;101619.16;5023074;28;20078;-77
2022/09/11 00:27:52;;;;;;;16.33;12.02;;;;;;;14.40;88.84;101619.19;5050969;28;20029;-77
2022/09/11 00:30:17;;;;;;;16.33;11.77;;;;;;;14.40;88.68;101624.41;5045185;28;20044;-77
2022/09/11 00:32:42;;;;;;;16.83;11.65;;;;;;;14.40;88.74;101629.66;5041690;28;20139;-77
2022/09/11 00:35:08;;;;;;;17.35;12.15;;;;;;;14.39;88.82;101627.94;5025342;28;20389;-77
2022/09/11 00:37:33;;;;;;;18.23;11.68;;;;;;;14.37;88.52;101624.50;5038948;28;20037;-77
2022/09/11 00:39:59;;;;;;;16.83;11.88;;;;;;;14.35;88.36;101625.47;5034752;28;20114;-77
2022/09/11 00:42:24;;;;;;;17.70;11.80;;;;;;;14.33;88.44;101630.75;5034823;28;20150;-77
2022/09/11 00:44:49;;;;;;;16.13;11.77;;;;;;;14.30;88.44;101637.81;5046421;28;20071;-77
2022/09/11 00:47:17;;;;;;;15.50;10.98;;;;;;;14.27;88.67;101633.53;5043274;28;20033;-77
2022/09/11 00:49:53;;;;;;;16.13;11.98;;;;;;;14.26;88.82;101637.91;5042889;28;20086;-79
2022/09/11 00:52:29;;;;;;;17.55;11.65;;;;;;;14.23;88.57;101627.53;5044548;28;20116;-77
2022/09/11 00:55:17;;;;;;;16.67;11.35;;;;;;;14.21;88.05;101628.47;5041869;28;20468;-77
2022/09/11 00:57:48;;;;;;;16.73;11.77;;;;;;;14.15;88.12;101629.50;5040092;28;20033;-77
2022/09/11 01:00:13;;;;;;;16.85;11.57;;;;;;;14.14;88.12;101632.19;5043199;28;20059;-77
2022/09/11 01:02:41;;;;;;;16.83;10.75;;;;;;;14.11;88.15;101633.97;5021605;28;20025;-77
2022/09/11 01:05:08;;;;;;;14.65;11.02;;;;;;;14.09;88.00;101632.31;5037834;28;20037;-77
2022/09/11 01:07:35;;;;;;;15.30;10.80;;;;;;;14.05;87.70;101639.38;5041238;28;20021;-77
2022/09/11 01:10:02;;;;;;;18.45;12.20;;;;;;;14.03;88.28;101641.16;5040450;28;20033;-77
2022/09/11 01:12:52;;;;;;;16.63;12.30;;;;;;;14.04;88.66;101647.28;5034651;28;20025;-77
2022/09/11 01:15:32;;;;;;;19.15;12.93;;;;;;;14.06;89.14;101648.94;5041177;28;20027;-76
2022/09/11 01:18:13;;;;;;;16.08;11.95;;;;;;;14.07;88.64;101653.25;5037917;28;20071;-77
2022/09/11 01:21:02;;;;;;;;;;;;;;;14.11;87.41;101654.03;5034636;28;20017;-77
2022/09/11 01:23:36;;;;;;;14.50;9.75;;;;;;;14.05;87.96;101651.59;5040997;28;19923;-77
2022/09/11 01:26:20;;;;;;;16.05;10.95;;;;;;;14.04;88.45;101652.50;5045738;28;20387;-77
2022/09/11 01:28:51;;;;;;;16.58;11.18;;;;;;;14.02;88.54;101649.06;5025594;28;20025;-77
2022/09/11 01:31:25;;;;;;;16.52;11.50;;;;;;;14.01;88.35;101648.19;5040724;28;20364;-76
2022/09/11 01:34:09;;;;;;;17.52;12.30;;;;;;;13.99;88.79;101652.63;5019925;28;20302;-76
2022/09/11 01:36:45;;;;;;;19.48;12.65;;;;;;;14.00;89.17;101658.72;5039677;28;20432;-77
2022/09/11 01:39:12;;;;;;;18.98;13.38;;;;;;;13.99;89.44;101663.09;5028591;28;20016;-77
2022/09/11 01:41:53;;;;;;;19.45;12.93;;;;;;;13.99;89.32;101663.09;5042467;28;20031;-77
2022/09/11 01:44:25;;;;;;;19.10;12.80;;;;;;;13.98;89.22;101664.00;5049501;28;20044;-77
2022/09/11 01:46:52;;;;;;;;;;;;;;;14.01;87.93;101663.03;5038115;28;20025;-77
2022/09/11 01:49:22;;;;;;;17.70;11.48;;;;;;;13.96;89.40;101661.41;5037731;28;19919;-77
2022/09/11 01:51:53;;;;;;;19.38;12.07;;;;;;;13.95;89.71;101671.91;5040215;28;20026;-77
2022/09/11 01:54:24;;;;;;;21.77;13.63;;;;;;;13.93;89.60;101676.31;5044248;28;20472;-77
2022/09/11 01:56:55;;;;;;;;;;;;;;;13.94;88.17;101667.59;5025158;28;20477;-76
2022/09/11 01:59:33;;;;;;;20.13;12.67;;;;;;;13.90;89.43;101665.94;5042020;28;19913;-77
2022/09/11 02:02:05;;;;;;;18.88;12.95;;;;;;;13.90;89.70;101676.41;5038151;28;20047;-76
2022/09/11 02:04:58;;;;;;;23.13;14.18;;;;;;;13.89;89.61;101674.69;5040138;28;20493;-77
2022/09/11 02:07:35;;;;;;;18.92;13.32;;;;;;;13.87;89.90;101679.09;5038801;28;20503;-76
2022/09/11 02:10:07;;;;;;;17.20;12.48;;;;;;;13.83;89.34;101678.31;5043784;28;20384;-76
2022/09/11 02:12:38;;;;;;;;;;;;;;;13.85;88.13;101673.03;5029444;28;20381;-77
2022/09/11 02:15:04;;;;;;;15.23;10.13;;;;;;;13.75;88.23;101670.69;5044878;28;19912;-77
2022/09/11 02:17:45;;;;;;;17.17;11.30;;;;;;;13.70;88.45;101669.94;5037701;28;20040;-77
2022/09/11 02:20:11;;;;;;;16.13;11.02;;;;;;;13.68;88.39;101676.94;5052238;28;20110;-76
2022/09/11 02:22:36;;;;;;;18.55;12.65;;;;;;;13.66;88.43;101671.78;5044246;28;20041;-77
2022/09/11 02:25:02;;;;;;;20.08;13.18;;;;;;;13.64;88.36;101670.09;5046755;28;20033;-77
2022/09/11 02:27:30;;;;;;;18.70;12.82;;;;;;;13.62;88.43;101677.13;5053338;28;20031;-77
2022/09/11 02:29:58;;;;;;;17.45;12.55;;;;;;;13.58;88.37;101675.47;5042783;28;20021;-77
2022/09/11 02:32:25;;;;;;;20.98;13.52;;;;;;;13.58;89.18;101680.72;5042108;28;20018;-77
2022/09/11 02:34:54;;;;;;;16.83;11.18;;;;;;;13.57;88.94;101685.09;5047844;28;20044;-77
2022/09/11 02:37:53;;;;;;;14.77;10.82;;;;;;;13.56;88.10;101682.50;5038082;28;20487;-77
2022/09/11 02:40:43;;;;;;;11.98;9.63;;;;;;;13.50;87.48;101686.97;5042963;28;20024;-76
2022/09/11 02:43:44;;;;;;;18.75;11.57;;;;;;;13.50;88.43;101689.59;5036403;28;20029;-76
2022/09/11 02:46:25;;;;;;;11.32;8.05;;;;;;;13.48;87.84;101686.19;5039307;28;20025;-77
2022/09/11 02:49:12;;;;;;;14.17;10.30;;;;;;;13.46;87.78;101685.34;5046472;28;20083;-77
2022/09/11 02:51:47;;;;;;;16.20;9.80;;;;;;;13.44;87.96;101694.09;5039273;28;20345;-76
2022/09/11 02:54:57;;;;;;;17.83;12.20;;;;;;;13.46;89.03;101698.41;5043595;28;20048;-77
2022/09/11 02:57:30;;;;;;;20.17;12.70;;;;;;;13.47;89.54;101694.91;5038375;28;20072;-76
2022/09/11 02:59:59;;;;;;;20.65;12.23;;;;;;;13.47;89.06;101700.13;5048370;28;20025;-77
2022/09/11 03:02:27;;;;;;;17.83;12.45;;;;;;;13.45;88.60;101701.94;5046956;28;20428;-77
2022/09/11 03:04:53;;;;;;;23.10;13.02;;;;;;;13.43;88.62;101702.84;5043358;28;20053;-77
2022/09/11 03:07:18;;;;;;;18.83;12.55;;;;;;;13.40;88.60;101693.31;5045191;28;20036;-77
2022/09/11 03:09:43;;;;;;;18.17;12.75;;;;;;;13.38;88.48;101694.25;5047081;28;20033;-77
2022/09/11 03:12:09;;;;;;;17.85;11.77;;;;;;;13.33;88.03;101697.81;5042251;28;20024;-77
2022/09/11 03:14:34;;;;;;;16.70;12.35;;;;;;;13.29;87.79;101700.53;5048528;28;20029;-77
2022/09/11 03:17:00;;;;;;;15.10;10.35;;;;;;;13.24;86.98;101697.16;5045893;28;21972;-77
2022/09/11 03:19:26;;;;;;;16.30;10.55;;;;;;;13.18;86.83;101704.25;5058302;28;20059;-77
2022/09/11 03:21:52;;;;;;;21.95;10.00;;;;;;;13.13;87.02;101703.50;5044685;28;20053;-77
2022/09/11 03:24:17;;;;;;;12.60;8.63;;;;;;;13.12;87.41;101707.00;5044848;28;20472;-77
2022/09/11 03:26:43;;;;;;;11.32;7.70;;;;;;;13.10;87.01;101706.19;5039973;28;20064;-77
2022/09/11 03:29:08;;;;;;;11.77;8.35;;;;;;;13.09;87.71;101698.38;5036825;28;20079;-77
2022/09/11 03:31:34;;;;;;;11.00;7.22;;;;;;;13.06;86.99;101702.75;5046475;28;20491;-77
2022/09/11 03:33:59;;;;;;;11.85;7.63;;;;;;;13.02;86.88;101708.97;5046808;28;20033;-77
2022/09/11 03:36:24;;;;;;;12.48;8.48;;;;;;;12.98;86.97;101702.09;5038851;28;20033;-77
2022/09/11 03:38:51;;;;;;;12.20;9.18;;;;;;;12.95;85.77;101711.75;5047573;28;20028;-77
2022/09/11 03:41:17;;;;;;;13.88;9.38;;;;;;;12.90;86.39;101710.09;5043562;28;20159;-77
2022/09/11 03:43:42;;;;;;;19.42;9.85;;;;;;;12.87;86.88;101710.16;5044353;28;20123;-77
2022/09/11 03:46:08;;;;;;;19.23;9.40;;;;;;;12.84;86.56;101709.38;5041062;28;20049;-77
2022/09/11 03:48:33;;;;;;;18.10;8.75;;;;;;;12.81;86.60;101714.66;5045296;28;20075;-77
2022/09/11 03:50:58;;;;;;;59.50;8.75;;;;;;;12.75;86.70;101715.63;5042828;28;20320;-77
2022/09/11 03:53:25;;;;;;;55.85;8.30;;;;;;;12.69;86.83;101719.25;5038852;28;20106;-77
2022/09/11 03:55:50;;;;;;;36.53;8.65;;;;;;;12.67;87.19;101714.91;5040747;28;20134;-77
2022/09/11 03:58:18;;;;;;;12.70;9.02;;;;;;;12.67;87.36;101717.53;5039209;28;20492;-77
2022/09/11 04:00:44;;;;;;;12.68;8.90;;;;;;;12.65;87.31;101724.53;5027414;28;20476;-77
2022/09/11 04:03:14;;;;;;;37.50;9.45;;;;;;;12.63;87.83;101721.13;5042898;28;20017;-77
2022/09/11 04:05:42;;;;;;;30.00;9.27;;;;;;;12.60;87.56;101733.34;5044850;28;20492;-77
2022/09/11 04:08:11;;;;;;;38.28;9.85;;;;;;;12.60;87.65;101725.50;5038522;28;20021;-77
2022/09/11 04:10:37;;;;;;;16.33;9.65;;;;;;;12.60;87.57;101722.91;5049785;28;20104;-77
2022/09/11 04:13:03;;;;;;;27.30;9.52;;;;;;;12.57;87.38;101728.19;5042857;28;20491;-77
2022/09/11 04:15:28;;;;;;;46.33;9.70;;;;;;;12.57;87.05;101732.53;5044171;28;20183;-77
2022/09/11 04:17:53;;;;;;;37.35;9.13;;;;;;;12.53;86.84;101736.09;5045636;28;20409;-77
2022/09/11 04:20:19;;;;;;;30.65;8.10;;;;;;;12.49;86.53;101735.28;5037641;28;20037;-77
2022/09/11 04:22:44;;;;;;;31.92;7.75;;;;;;;12.44;86.44;101726.69;5041691;28;20083;-77
2022/09/11 04:25:11;;;;;;;14.93;7.85;;;;;;;12.43;87.09;101728.44;5041572;28;20025;-77
2022/09/11 04:27:36;;;;;;;9.60;7.47;;;;;;;12.42;87.09;101728.47;5036509;28;20024;-77
2022/09/11 04:30:02;;;;;;;10.52;7.55;;;;;;;12.42;87.00;101720.66;5039424;28;20029;-77
2022/09/11 04:32:28;;;;;;;9.68;7.68;;;;;;;12.39;86.97;101718.09;5035949;28;20021;-77
2022/09/11 04:34:53;;;;;;;12.05;8.43;;;;;;;12.38;87.33;101721.59;5038537;28;20057;-77
2022/09/11 04:37:18;;;;;;;17.40;8.65;;;;;;;12.38;87.54;101726.81;5025889;28;20067;-76
2022/09/11 04:39:44;;;;;;;19.08;8.38;;;;;;;12.36;87.84;101728.59;5049071;28;20040;-77
2022/09/11 04:42:09;;;;;;;22.42;8.55;;;;;;;12.38;87.65;101734.63;5046312;28;20037;-77
2022/09/11 04:44:35;;;;;;;11.45;8.05;;;;;;;12.40;87.85;101727.66;5037356;28;20029;-77
2022/09/11 04:47:01;;;;;;;10.90;8.20;;;;;;;12.42;87.87;101725.88;5039156;28;20029;-77
2022/09/11 04:49:26;;;;;;;15.88;8.07;;;;;;;12.43;88.20;101727.59;5037631;28;20493;-77
2022/09/11 04:51:51;;;;;;;24.60;8.95;;;;;;;12.43;88.40;101724.97;5045764;28;20052;-77
2022/09/11 04:54:22;;;;;;;35.85;9.55;;;;;;;12.43;88.69;101732.81;5041705;28;20043;-77
2022/09/11 04:56:48;;;;;;;29.90;9.15;;;;;;;12.43;88.73;101738.03;5041699;28;20021;-77
2022/09/11 04:59:19;;;;;;;36.47;8.77;;;;;;;12.43;89.03;101738.03;5044449;28;20387;-77
2022/09/11 05:01:45;;;;;;;69.93;9.68;;;;;;;12.42;89.30;101737.16;5041566;28;20033;-77
2022/09/11 05:04:14;;;;;;;80.03;8.32;;;;;;;12.42;89.31;101731.94;5036780;28;20455;-77
2022/09/11 05:06:41;;;;;;;47.90;8.05;;;;;;;12.43;89.62;101731.03;5043645;28;20415;-77
2022/09/11 05:09:08;;;;;;;18.80;8.02;;;;;;;12.44;89.91;101729.31;5040830;28;20442;-77
2022/09/11 05:11:34;;;;;;;22.15;8.13;;;;;;;12.45;89.62;101734.50;5046104;28;20025;-77
2022/09/11 05:14:00;;;;;;;36.08;8.98;;;;;;;12.43;89.62;101735.41;5040335;28;20017;-77
2022/09/11 05:16:27;;;;;;;19.15;9.23;;;;;;;12.41;89.82;101743.25;5045125;28;20029;-77
2022/09/11 05:18:53;;;;;;;22.27;8.23;;;;;;;12.39;89.75;101739.81;5041696;28;20033;-77
2022/09/11 05:21:23;;;;;;;14.00;7.57;;;;;;;12.41;89.81;101742.41;5042118;28;20017;-77
2022/09/11 05:23:54;;;;;;;23.83;8.00;;;;;;;12.40;89.68;101741.53;5035825;28;20041;-77
2022/09/11 05:26:22;;;;;;;18.30;7.55;;;;;;;12.38;89.66;101751.13;5042242;28;20034;-77
2022/09/11 05:28:53;;;;;;;14.45;8.07;;;;;;;12.39;89.74;101752.00;5051556;28;20025;-77
2022/09/11 05:31:19;;;;;;;11.10;7.80;;;;;;;12.41;89.32;101763.28;5031631;28;20063;-77
2022/09/11 05:33:45;;;;;;;12.18;7.93;;;;;;;12.42;89.48;101770.22;5036989;28;20469;-77
2022/09/11 05:36:12;;;;;;;17.08;8.10;;;;;;;12.41;89.38;101769.34;5043130;28;20016;-77
2022/09/11 05:38:40;;;;;;;10.70;8.73;;;;;;;12.42;88.84;101765.00;5035311;28;20056;-77
2022/09/11 05:41:09;;;;;;;14.13;7.88;;;;;;;12.43;89.19;101770.19;5045102;28;20098;-77
2022/09/11 05:43:35;;;;;;;13.43;8.23;;;;;;;12.44;88.91;101779.75;5042900;28;20029;-77
2022/09/11 05:46:00;;;;;;;12.50;8.55;;;;;;;12.44;88.62;101782.34;5046470;28;20373;-77
2022/09/11 05:48:30;;;;;;;10.02;8.88;;;;;;;12.45;88.76;101786.69;5042157;28;20022;-77
2022/09/11 05:51:08;;;;;;;10.30;8.57;;;;;;;12.46;88.57;101784.94;5046529;28;20500;-77
2022/09/11 05:53:34;;;;;;;14.98;8.98;;;;;;;12.46;88.89;101792.78;5050458;28;20028;-77
2022/09/11 05:56:07;;;;;;;15.15;8.52;;;;;;;12.49;89.06;101803.13;5043456;28;20017;-77
2022/09/11 05:58:33;;;;;;;16.83;9.55;;;;;;;12.51;88.86;101801.38;5046238;28;20036;-77
2022/09/11 06:01:03;;;;;;;16.92;9.32;;;;;;;12.54;89.24;101809.16;5041707;28;20021;-77
2022/09/11 06:03:31;;;;;;;25.17;8.80;;;;;;;12.55;89.59;101797.81;5044237;28;20029;-77
2022/09/11 06:05:58;;;;;;;10.00;8.52;;;;;;;12.60;89.83;101801.22;5045099;28;20106;-77
2022/09/11 06:08:24;;;;;;;13.05;8.25;;;;;;;12.64;89.68;101806.38;5048859;28;20387;-77
2022/09/11 06:10:49;;;;;;;12.20;8.27;;;;;;;12.66;89.50;101809.78;5028682;28;20548;-77
2022/09/11 06:13:16;;;;;;;25.73;8.32;;;;;;;12.68;90.03;101814.13;5048475;28;20029;-77
2022/09/11 06:15:45;;;;;;;12.48;8.23;;;;;;;12.70;89.52;101819.31;5048002;28;20051;-77
2022/09/11 06:18:11;;;;;;;18.63;8.50;;;;;;;12.70;89.39;101828.00;5047491;28;20027;-77
2022/09/11 06:20:37;;;;;;;10.40;7.47;;;;;;;12.73;89.29;101827.09;5039208;28;20030;-77
2022/09/11 06:23:02;;;;;;;16.73;7.82;;;;;;;12.74;89.12;101824.44;5042837;28;20049;-77
2022/09/11 06:25:27;;;;;;;10.50;8.02;;;;;;;12.75;89.51;101830.53;5036815;28;20053;-77
2022/09/11 06:27:52;;;;;;;9.05;8.00;;;;;;;12.78;89.12;101824.38;5042174;28;20037;-77
2022/09/11 06:30:17;;;;;;;12.80;7.80;;;;;;;12.79;88.91;101828.72;5046903;28;20380;-77
2022/09/11 06:32:43;;;;;;;11.85;8.23;;;;;;;12.79;89.47;101832.19;5040713;28;20036;-77
2022/09/11 06:35:09;;;;;;;20.33;7.53;;;;;;;12.81;88.81;101829.53;5042075;28;20033;-77
2022/09/11 06:37:34;;;;;;;11.27;7.38;;;;;;;12.83;89.18;101833.00;5040447;28;20025;-77
2022/09/11 06:40:00;;;;;;;10.18;7.55;;;;;;;12.86;89.13;101838.16;5042408;28;20091;-77
2022/09/11 06:42:26;;;;;;;19.52;7.57;;;;;;;12.90;89.23;101831.97;5045939;28;20083;-77
2022/09/11 06:44:52;;;;;;;12.75;7.78;;;;;;;12.95;89.33;101839.72;5043762;28;20029;-77
2022/09/11 06:47:17;;;;;;;12.98;8.13;;;;;;;12.98;89.46;101839.69;5042488;28;20053;-77
2022/09/11 06:49:42;;;;;;;9.68;7.63;;;;;;;13.00;89.37;101843.97;5042082;28;20043;-77
2022/09/11 06:52:08;;;;;;;12.10;8.25;;;;;;;13.04;89.59;101849.97;5042115;28;21570;-76
2022/09/11 06:54:33;;;;;;;13.68;8.98;;;;;;;13.07;89.72;101852.53;5040622;28;20039;-77
2022/09/11 06:56:59;;;;;;;16.17;8.32;;;;;;;13.11;89.80;101846.38;5024016;28;20033;-77
2022/09/11 06:59:24;;;;;;;19.52;8.52;;;;;;;13.15;90.02;101853.22;5041944;28;20041;-76
2022/09/11 07:01:50;;;;;;;14.57;9.15;;;;;;;13.20;90.12;101856.63;5038347;28;20476;-77
2022/09/11 07:04:15;;;;;;;25.60;9.05;;;;;;;13.25;90.35;101856.53;5039618;28;20487;-77
2022/09/11 07:06:41;;;;;;;18.02;9.43;;;;;;;13.29;90.29;101857.34;5035199;28;20056;-77
2022/09/11 07:09:06;;;;;;;20.02;9.23;;;;;;;13.31;90.46;101860.78;5038956;28;20033;-77
2022/09/11 07:11:33;;;;;;;15.15;9.45;;;;;;;13.35;90.65;101862.41;5042290;28;20047;-77
2022/09/11 07:14:04;;;;;;;17.23;10.55;;;;;;;13.38;90.74;101862.34;5039501;28;20032;-77
2022/09/11 07:16:30;;;;;;;17.08;9.45;;;;;;;13.43;90.61;101855.31;5038361;28;20029;-77
2022/09/11 07:18:57;;;;;;;15.52;9.88;;;;;;;13.46;90.34;101851.78;5038066;28;20028;-77
2022/09/11 07:21:25;;;;;;;15.43;9.27;;;;;;;13.49;90.54;101847.31;5035608;28;20025;-77
2022/09/11 07:23:54;;;;;;;16.77;10.15;;;;;;;13.56;90.68;101849.81;5037398;28;20091;-77
2022/09/11 07:26:22;;;;;;;12.13;9.43;;;;;;;13.62;91.16;101852.31;5032997;28;20067;-78
2022/09/11 07:28:49;;;;;;;12.27;9.63;;;;;;;13.65;90.26;101853.09;5036820;28;20561;-77
2022/09/11 07:31:20;;;;;;;13.93;9.90;;;;;;;13.70;90.72;101842.53;5020084;28;20712;-77
2022/09/11 07:33:47;;;;;;;21.52;9.50;;;;;;;13.75;90.52;101850.28;5037706;28;20024;-77
2022/09/11 07:36:15;;;;;;;22.02;9.15;;;;;;;13.78;90.75;101848.44;5033379;28;20438;-77
2022/09/11 07:38:42;;;;;;;40.42;10.30;;;;;;;13.83;90.74;101860.56;5034565;28;20128;-77
2022/09/11 07:41:08;;;;;;;37.88;9.82;;;;;;;13.87;91.10;101855.22;5036975;28;20091;-77
2022/09/11 07:43:39;;;;;;;24.33;9.88;;;;;;;13.93;91.08;101862.06;5039051;28;20033;-77
2022/09/11 07:46:05;;;;;;;15.18;9.98;;;;;;;13.96;89.95;101859.38;5035121;28;20025;-77
2022/09/11 07:48:31;;;;;;;24.23;10.98;;;;;;;13.95;89.79;101857.66;5035304;28;20033;-77
2022/09/11 07:51:01;;;;;;;21.00;10.23;;;;;;;13.99;90.61;101859.31;5039329;28;20029;-77
2022/09/11 07:53:30;;;;;;;26.98;10.55;;;;;;;14.01;90.41;101852.25;5037243;28;20029;-77
2022/09/11 07:56:00;;;;;;;14.45;10.50;;;;;;;14.08;90.73;101853.84;5038108;28;20029;-77
2022/09/11 07:58:26;;;;;;;21.38;10.57;;;;;;;14.14;90.87;101858.06;5040306;28;20029;-77
2022/09/11 08:00:57;;;;;;;23.88;10.57;;;;;;;14.20;90.81;101859.66;5041485;28;20107;-77
2022/09/11 08:03:23;;;;;;;;;;;;;;;14.30;89.66;101865.53;5035735;28;20032;-77
2022/09/11 08:05:48;;;;;;;13.50;9.63;;;;;;;14.33;90.51;101868.97;5003303;28;1024523;-77
2022/09/11 08:08:14;;;;;;;14.43;10.15;;;;;;;14.37;90.22;101865.34;5043131;28;20096;-77
2022/09/11 08:10:39;;;;;;;21.58;11.40;;;;;;;14.38;90.05;101867.06;5040622;28;20095;-77
2022/09/11 08:13:05;;;;;;;21.38;11.20;;;;;;;14.41;90.52;101874.84;5043202;28;20024;-77
2022/09/11 08:15:30;;;;;;;24.58;12.40;;;;;;;14.43;90.17;101880.06;5020988;28;20596;-77
2022/09/11 08:17:55;;;;;;;25.75;12.27;;;;;;;14.47;90.15;101881.69;5040167;28;20037;-77
2022/09/11 08:20:21;;;;;;;22.50;12.30;;;;;;;14.51;89.93;101883.31;5045042;28;20067;-77
2022/09/11 08:22:46;;;;;;;20.42;11.55;;;;;;;14.56;90.66;101880.59;5038491;28;20796;-77
2022/09/11 08:25:12;;;;;;;18.05;12.68;;;;;;;14.62;90.71;101885.69;5040839;28;20036;-77
2022/09/11 08:27:38;;;;;;;18.45;13.13;;;;;;;14.69;90.56;101891.63;5023935;28;20040;-77
2022/09/11 08:30:03;;;;;;;20.92;13.30;;;;;;;14.74;90.48;101896.75;5040407;28;20048;-77
2022/09/11 08:32:28;;;;;;;20.23;13.32;;;;;;;14.78;90.55;101896.63;5042252;28;20025;-77
2022/09/11 08:34:54;;;;;;;18.52;12.90;;;;;;;14.83;90.71;101897.38;5041804;28;20503;-77
2022/09/11 08:37:19;;;;;;;19.60;13.65;;;;;;;14.89;90.54;101898.97;5043334;28;20039;-77
2022/09/11 08:39:45;;;;;;;19.38;13.48;;;;;;;14.93;90.80;101900.59;5029112;28;20511;-77
2022/09/11 08:42:15;;;;;;;24.92;13.82;;;;;;;14.95;90.02;101904.03;5044025;28;20028;-77
2022/09/11 08:44:46;;;;;;;20.45;14.18;;;;;;;14.97;90.62;101899.63;5043446;28;20028;-77
2022/09/11 08:47:19;;;;;;;22.13;15.35;;;;;;;15.02;90.72;101905.63;5041905;28;20028;-77
2022/09/11 08:49:57;;;;;;;21.48;14.60;;;;;;;15.08;90.26;101908.94;5022256;28;20057;-77
2022/09/11 08:52:22;;;;;;;22.40;14.98;;;;;;;15.12;90.79;101907.97;5036031;28;20052;-77
2022/09/11 08:54:49;;;;;;;24.48;15.27;;;;;;;15.17;89.94;101903.47;5039879;28;20060;-77
2022/09/11 08:57:20;;;;;;;22.25;15.38;;;;;;;15.23;89.69;101910.28;5019253;28;20063;-77
2022/09/11 09:00:05;;;;;;;23.73;15.95;;;;;;;15.28;89.06;101911.88;5037685;28;20095;-77
2022/09/11 09:03:19;;;;;;;23.67;14.95;;;;;;;15.36;90.17;101911.66;5039856;28;20029;-77
2022/09/11 09:05:49;;;;;;;21.23;14.52;;;;;;;15.42;89.95;101914.09;5032922;28;20057;-78
2022/09/11 09:08:21;;;;;;;19.95;13.40;;;;;;;15.45;89.96;101913.16;5041097;28;20032;-77
2022/09/11 09:11:01;;;;;;;21.92;14.65;;;;;;;15.51;89.92;101906.84;5041338;28;20036;-78
2022/09/11 09:13:44;;;;;;;21.05;13.63;;;;;;;15.53;89.76;101911.19;5035291;28;20477;-78
2022/09/11 09:16:28;;;;;;;22.90;15.25;;;;;;;15.57;89.35;101909.31;5036300;28;20043;-79
2022/09/11 09:19:02;;;;;;;23.92;15.18;;;;;;;15.62;89.12;101912.66;5033544;28;20041;-78
2022/09/11 09:21:36;;;;;;;24.95;16.58;;;;;;;15.71;89.64;101919.41;5040143;28;20139;-79
2022/09/11 09:24:08;;;;;;;23.08;15.68;;;;;;;15.74;88.96;101914.03;5041233;28;20559;-78
2022/09/11 09:26:39;;;;;;;21.58;15.25;;;;;;;15.81;88.76;101922.59;5039538;28;20033;-79
2022/09/11 09:29:13;;;;;;;24.20;16.10;;;;;;;15.85;88.07;101921.59;5039965;28;20053;-78
2022/09/11 09:31:40;;;;;;;25.63;16.55;;;;;;;15.92;88.42;101921.38;5038171;28;20020;-79
2022/09/11 09:34:14;;;;;;;23.98;15.98;;;;;;;15.97;88.19;101923.84;5036670;28;20051;-79
2022/09/11 09:36:55;;;;;;;23.65;16.60;;;;;;;16.06;87.71;101925.34;5038865;28;20025;-78
2022/09/11 09:39:22;;;;;;;25.13;16.27;;;;;;;16.11;87.58;101922.59;5036821;28;20677;-78
2022/09/11 09:41:50;;;;;;;23.23;17.08;;;;;;;16.17;87.87;101922.38;5038196;28;20025;-79
2022/09/11 09:44:43;;;;;;;22.58;16.60;;;;;;;16.26;88.44;101918.59;5037900;28;20032;-79
2022/09/11 09:47:12;;;;;;;23.23;16.77;;;;;;;16.32;87.93;101931.53;5041552;28;20033;-78
2022/09/11 09:49:39;;;;;;;22.63;15.80;;;;;;;16.31;85.41;101932.44;5040439;28;20024;-78
2022/09/11 09:52:19;;;;;;;24.15;16.20;;;;;;;16.35;86.29;101940.16;5037352;28;20174;-78
2022/09/11 09:54:50;;;;;;;21.08;15.45;;;;;;;16.36;86.34;101933.16;5040584;28;20033;-78
2022/09/11 09:57:16;;;;;;;;;;;;;;;16.43;86.89;101925.94;5039938;28;20032;-78
2022/09/11 10:00:03;;;;;;;20.30;14.82;;;;;;;16.44;86.50;101925.03;5041037;28;19912;-78
2022/09/11 10:02:44;;;;;;;20.30;13.93;;;;;;;16.44;85.98;101932.91;5040236;28;20484;-78
2022/09/11 10:05:22;;;;;;;20.30;14.55;;;;;;;16.38;85.57;101933.97;5038925;28;20040;-78
2022/09/11 10:07:51;;;;;;;19.80;14.30;;;;;;;16.32;86.25;101926.28;5038756;28;20084;-78
2022/09/11 10:10:36;;;;;;;21.50;15.30;;;;;;;16.31;86.08;101929.81;5042825;28;20071;-78
2022/09/11 10:13:23;;;;;;;21.58;14.90;;;;;;;16.27;85.97;101928.19;5040357;28;20083;-78
2022/09/11 10:15:50;;;;;;;20.33;14.70;;;;;;;16.20;86.26;101923.16;5021845;28;20029;-78
2022/09/11 10:18:25;;;;;;;21.23;15.27;;;;;;;16.20;86.05;101924.91;5041126;28;20033;-77
2022/09/11 10:20:50;;;;;;;22.17;15.55;;;;;;;16.26;86.86;101927.34;5039915;28;20033;-78
2022/09/11 10:23:26;;;;;;;22.55;15.90;;;;;;;16.32;86.52;101931.53;5042032;28;20036;-78
2022/09/11 10:25:52;;;;;;;22.23;16.17;;;;;;;16.36;86.08;101938.41;5041932;28;20067;-78
2022/09/11 10:28:27;;;;;;;21.98;15.52;;;;;;;16.43;86.75;101933.81;5044681;28;20560;-78
2022/09/11 10:31:02;;;;;;;22.23;15.85;;;;;;;16.49;86.33;101934.47;5045267;28;21080;-78
2022/09/11 10:33:35;;;;;;;22.77;16.05;;;;;;;16.57;86.83;101930.75;5042713;28;20041;-78
2022/09/11 10:36:04;;;;;;;22.67;16.92;;;;;;;16.66;86.09;101935.66;5045321;28;20028;-78
2022/09/11 10:38:50;;;;;;;22.23;16.90;;;;;;;16.78;86.17;101934.41;5044648;28;20337;-78
2022/09/11 10:41:20;;;;;;;24.02;17.05;;;;;;;16.90;85.13;101928.72;5044834;28;20084;-78
2022/09/11 10:43:59;;;;;;;22.65;16.48;;;;;;;17.01;85.02;101923.09;5041469;28;20094;-78
2022/09/11 10:46:30;;;;;;;23.63;16.88;;;;;;;17.10;84.61;101928.03;5046625;28;20105;-78
2022/09/11 10:49:12;;;;;;;24.45;17.42;;;;;;;17.18;83.24;101926.91;5041709;28;20033;-79
2022/09/11 10:51:40;;;;;;;19.67;16.05;;;;;;;17.21;81.43;101924.16;5042958;28;20029;-79
2022/09/11 10:54:34;;;;;;;21.23;15.50;;;;;;;17.26;82.25;101928.34;5039766;28;20029;-77
2022/09/11 10:57:06;;;;;;;19.85;15.02;;;;;;;17.26;80.14;101924.84;5040043;28;20029;-78
2022/09/11 10:59:38;;;;;;;17.17;13.63;;;;;;;17.26;79.55;101925.72;5040335;28;20024;-78
2022/09/11 11:02:16;;;;;;;15.93;13.15;;;;;;;17.28;79.84;101923.88;5040994;28;20029;-79
2022/09/11 11:04:41;;;;;;;17.92;13.45;;;;;;;17.36;79.81;101926.22;5037371;28;20132;-79
2022/09/11 11:07:16;;;;;;;18.55;14.10;;;;;;;17.46;79.35;101932.00;5037594;28;20781;-78
2022/09/11 11:10:01;;;;;;;18.08;13.75;;;;;;;17.59;80.32;101929.78;5020416;28;20654;-79
2022/09/11 11:12:34;;;;;;;17.58;13.85;;;;;;;17.73;79.99;101929.22;5039108;28;20116;-79
2022/09/11 11:15:21;;;;;;;20.85;15.05;;;;;;;17.82;80.52;101913.09;5043477;28;20041;-78
2022/09/11 11:18:06;;;;;;;17.85;12.70;;;;;;;17.90;78.98;101916.28;5045594;28;20090;-78
2022/09/11 11:20:58;;;;;;;19.98;14.50;;;;;;;17.97;79.01;101919.50;5047393;28;20033;-79
2022/09/11 11:23:36;;;;;;;20.80;15.10;;;;;;;18.01;78.10;101925.56;5044328;28;20112;-79
2022/09/11 11:26:14;;;;;;;21.17;15.15;;;;;;;18.05;77.92;101924.50;5046718;28;20024;-79
2022/09/11 11:28:48;;;;;;;20.42;14.73;;;;;;;18.12;77.09;101927.75;5045985;28;20036;-79